Time;durP1;ratioP1;P1;durP2;ratioP2;P2;SDS_P1;SDS_P2;PMS_P1;PMS_P2;Temp;Humidity;BMP_temperature;BMP_pressure;BME280_temperature;BME280_humidity;BME280_pressure;Samples;Min_cycle;Max_cycle;Signal;HPM_P1;HPM_P2
2022/04/17 00:01:46;;;;;;;27.52;24.67;;;29.00;97.90;;;;;;4170783;28;20049;-75
2022/04/17 00:03:51;;;;;;;29.10;25.00;;;29.00;97.90;;;;;;4169852;28;20057;-76
2022/04/17 00:05:59;;;;;;;33.80;24.20;;;29.00;97.90;;;;;;4169241;28;20045;-76
2022/04/17 00:08:04;;;;;;;30.42;25.23;;;29.10;97.90;;;;;;4172599;28;20049;-76
2022/04/17 00:10:11;;;;;;;31.90;27.52;;;29.10;97.80;;;;;;4168630;28;20124;-79
2022/04/17 00:12:16;;;;;;;31.50;26.88;;;29.00;97.90;;;;;;4167476;28;20064;-75
2022/04/17 00:14:21;;;;;;;32.13;28.02;;;29.00;97.90;;;;;;4161744;28;20393;-73
2022/04/17 00:16:26;;;;;;;44.15;27.48;;;29.10;97.80;;;;;;4165011;28;20083;-75
2022/04/17 00:18:32;;;;;;;33.08;26.02;;;29.10;97.70;;;;;;4164353;28;20084;-75
2022/04/17 00:20:39;;;;;;;29.83;25.00;;;29.10;97.70;;;;;;4161458;28;20131;-75
2022/04/17 00:22:44;;;;;;;32.03;26.05;;;29.10;97.70;;;;;;4179670;28;20113;-71
2022/04/17 00:24:49;;;;;;;31.75;26.90;;;29.20;97.80;;;;;;4159637;28;20045;-72
2022/04/17 00:26:59;;;;;;;29.85;26.27;;;29.20;97.70;;;;;;4153129;28;20037;-74
2022/04/17 00:29:10;;;;;;;33.30;26.13;;;29.20;97.80;;;;;;4169389;28;20042;-76
2022/04/17 00:31:15;;;;;;;31.25;25.65;;;29.20;97.90;;;;;;4156664;28;20073;-75
2022/04/17 00:33:21;;;;;;;31.60;26.05;;;29.20;98.00;;;;;;4155707;28;20388;-74
2022/04/17 00:35:26;;;;;;;38.80;27.60;;;29.20;97.90;;;;;;4161267;28;20095;-74
2022/04/17 00:37:32;;;;;;;36.03;26.35;;;29.20;97.90;;;;;;4161610;28;20057;-73
2022/04/17 00:39:39;;;;;;;31.10;25.90;;;29.20;97.80;;;;;;4150255;28;20509;-74
2022/04/17 00:41:46;;;;;;;28.60;25.58;;;29.20;97.70;;;;;;4157116;28;20076;-75
2022/04/17 00:43:51;;;;;;;30.08;24.23;;;29.20;97.70;;;;;;4153126;28;20042;-71
2022/04/17 00:45:57;;;;;;;31.63;25.75;;;29.30;97.60;;;;;;4134332;28;20046;-72
2022/04/17 00:48:04;;;;;;;29.60;25.10;;;29.30;97.60;;;;;;4152037;28;20054;-74
2022/04/17 00:50:09;;;;;;;31.48;27.00;;;29.40;97.50;;;;;;4161082;28;20404;-74
2022/04/17 00:52:14;;;;;;;30.30;26.85;;;29.40;97.40;;;;;;4169588;28;20385;-74
2022/04/17 00:54:19;;;;;;;32.53;27.13;;;29.40;97.30;;;;;;4153911;28;20054;-74
2022/04/17 00:56:26;;;;;;;32.20;25.70;;;29.50;97.30;;;;;;4167140;28;20053;-76
2022/04/17 00:58:31;;;;;;;28.67;25.13;;;29.50;97.30;;;;;;4150446;28;20050;-75
2022/04/17 01:00:39;;;;;;;27.83;24.45;;;29.50;97.40;;;;;;4156531;28;20045;-74
2022/04/17 01:02:45;;;;;;;27.98;24.85;;;29.50;97.30;;;;;;4149050;28;20456;-75
2022/04/17 01:04:52;;;;;;;27.02;24.13;;;29.60;97.20;;;;;;4113696;28;20051;-74
2022/04/17 01:06:59;;;;;;;27.35;24.00;;;29.60;97.20;;;;;;4170605;28;20049;-74
2022/04/17 01:09:04;;;;;;;27.30;24.10;;;29.60;97.10;;;;;;4149738;28;20575;-75
2022/04/17 01:11:09;;;;;;;28.17;24.50;;;29.60;97.10;;;;;;4166118;28;20049;-74
2022/04/17 01:13:14;;;;;;;25.50;22.83;;;29.60;97.40;;;;;;4166615;28;20069;-74
2022/04/17 01:15:20;;;;;;;30.02;24.20;;;29.60;97.10;;;;;;4144033;28;20381;-74
2022/04/17 01:17:27;;;;;;;26.73;23.60;;;29.60;97.20;;;;;;4114376;28;20113;-75
2022/04/17 01:19:39;;;;;;;26.70;23.33;;;29.70;97.10;;;;;;4132895;28;20050;-73
2022/04/17 01:21:46;;;;;;;25.67;22.88;;;29.80;97.20;;;;;;4121680;28;20054;-75
2022/04/17 01:28:31;;;;;;;29.73;23.55;;;30.00;96.90;;;;;;4113290;28;20062;-74
2022/04/17 01:30:39;;;;;;;26.30;23.45;;;30.00;96.70;;;;;;4097038;28;20082;-74
2022/04/17 01:32:46;;;;;;;27.27;23.77;;;30.10;96.50;;;;;;4110876;28;20050;-74
2022/04/17 01:34:52;;;;;;;25.98;22.40;;;30.10;96.60;;;;;;4103679;28;20145;-74
2022/04/17 01:37:04;;;;;;;28.55;23.83;;;30.20;96.60;;;;;;4112149;28;20062;-74
2022/04/17 01:39:16;;;;;;;26.85;23.83;;;30.10;96.60;;;;;;4099806;28;20070;-72
2022/04/17 01:41:21;;;;;;;25.40;22.63;;;30.30;96.40;;;;;;4110339;28;20711;-74
2022/04/17 01:43:28;;;;;;;28.58;23.52;;;30.40;96.10;;;;;;4095252;28;20110;-71
2022/04/17 01:45:34;;;;;;;26.48;23.05;;;30.60;96.00;;;;;;4107921;28;20055;-74
2022/04/17 01:47:38;;;;;;;27.27;23.75;;;30.60;96.10;;;;;;4126574;28;20086;-75
2022/04/17 01:49:46;;;;;;;32.83;24.02;;;30.50;96.00;;;;;;4127370;28;20521;-74
2022/04/17 01:51:53;;;;;;;26.92;24.08;;;30.50;96.00;;;;;;4126984;28;20065;-73
2022/04/17 01:54:02;;;;;;;29.88;23.00;;;30.60;95.90;;;;;;4120553;28;20752;-72
2022/04/17 01:56:09;;;;;;;32.05;23.42;;;30.70;95.80;;;;;;4093799;29;20607;-74
2022/04/17 01:58:18;;;;;;;26.52;23.20;;;30.70;95.80;;;;;;4126291;28;20046;-74
2022/04/17 02:00:25;;;;;;;36.13;23.75;;;30.80;95.80;;;;;;4127546;28;20137;-72
2022/04/17 02:02:31;;;;;;;27.52;23.65;;;30.80;95.80;;;;;;4126675;28;20046;-73
2022/04/17 02:04:38;;;;;;;25.70;22.95;;;30.90;95.80;;;;;;4152695;28;20119;-74
2022/04/17 02:06:46;;;;;;;28.10;23.45;;;30.90;95.70;;;;;;4158114;28;20046;-72
2022/04/17 02:08:55;;;;;;;27.08;22.77;;;30.90;95.50;;;;;;4145582;28;20050;-72
2022/04/17 02:11:02;;;;;;;24.50;21.88;;;31.00;95.40;;;;;;4164285;28;20500;-73
2022/04/17 02:13:08;;;;;;;23.75;20.70;;;31.10;95.30;;;;;;4158621;28;20060;-73
2022/04/17 02:15:20;;;;;;;23.63;20.93;;;31.20;95.20;;;;;;4165391;28;20484;-74
2022/04/17 02:17:47;;;;;;;23.95;20.63;;;31.10;95.20;;;;;;4168880;28;20053;-74
2022/04/17 02:20:00;;;;;;;23.88;21.08;;;31.20;95.10;;;;;;4157871;28;20049;-73
2022/04/17 02:22:21;;;;;;;23.83;21.38;;;31.30;95.00;;;;;;4128614;28;20101;-73
2022/04/17 02:24:49;;;;;;;24.88;21.42;;;31.40;94.90;;;;;;4143656;28;20112;-74
2022/04/17 02:27:19;;;;;;;23.73;21.35;;;31.40;95.00;;;;;;4167800;28;20076;-73
2022/04/17 02:29:35;;;;;;;24.40;21.83;;;31.40;95.00;;;;;;4162435;28;20042;-74
2022/04/17 02:31:46;;;;;;;24.92;22.30;;;31.50;94.90;;;;;;4156935;28;20460;-74
2022/04/17 02:33:51;;;;;;;24.23;20.75;;;31.30;95.00;;;;;;4168429;28;20041;-74
2022/04/17 02:35:59;;;;;;;27.05;22.75;;;31.40;95.10;;;;;;4156180;28;20097;-71
2022/04/17 02:38:05;;;;;;;24.27;21.67;;;31.40;95.00;;;;;;4156797;28;20034;-71
2022/04/17 02:40:11;;;;;;;22.05;19.75;;;31.50;95.00;;;;;;4163465;28;20132;-70
2022/04/17 02:42:17;;;;;;;23.67;21.15;;;31.60;94.70;;;;;;4133065;28;20086;-71
2022/04/17 02:44:25;;;;;;;24.33;21.83;;;31.70;94.20;;;;;;4153711;28;20050;-71
2022/04/17 02:48:50;;;;;;;26.75;22.55;;;31.70;94.50;;;;;;4157038;28;20050;-73
2022/04/17 02:50:58;;;;;;;23.40;20.98;;;31.60;94.20;;;;;;4152066;28;20107;-73
2022/04/17 02:53:04;;;;;;;26.77;20.75;;;31.70;94.50;;;;;;4164368;28;20037;-74
2022/04/17 02:55:12;;;;;;;23.52;20.95;;;31.70;94.40;;;;;;4154292;28;20053;-73
2022/04/17 02:57:19;;;;;;;24.38;20.42;;;31.90;94.30;;;;;;4163279;28;20079;-73
2022/04/17 02:59:26;;;;;;;26.17;21.98;;;31.90;94.20;;;;;;4160565;28;20174;-74
2022/04/17 03:06:12;;;;;;;23.63;21.15;;;31.90;94.10;;;;;;4162552;28;20041;-74
2022/04/17 03:08:22;;;;;;;27.85;24.85;;;32.10;94.10;;;;;;4162257;28;20408;-74
2022/04/17 03:10:30;;;;;;;34.92;30.48;;;32.10;93.90;;;;;;4163901;28;20045;-73
2022/04/17 03:12:38;;;;;;;28.73;25.63;;;32.20;93.90;;;;;;4153188;28;20046;-74
2022/04/17 03:14:46;;;;;;;30.88;27.00;;;32.20;93.70;;;;;;4173699;28;20051;-74
2022/04/17 03:16:52;;;;;;;27.33;24.38;;;32.40;93.70;;;;;;4166607;28;20060;-73
2022/04/17 03:18:57;;;;;;;24.58;21.98;;;32.30;93.40;;;;;;4152800;28;20096;-73
2022/04/17 03:21:05;;;;;;;32.00;27.73;;;32.40;93.50;;;;;;4152011;28;20053;-73
2022/04/17 03:23:14;;;;;;;29.52;26.15;;;32.40;93.40;;;;;;4158713;28;20473;-73
2022/04/17 03:25:19;;;;;;;31.45;25.95;;;32.40;93.30;;;;;;4164975;28;20075;-74
2022/04/17 03:27:25;;;;;;;29.65;25.33;;;32.50;93.30;;;;;;4158540;28;20050;-73
2022/04/17 03:29:33;;;;;;;27.33;24.48;;;32.50;93.30;;;;;;4158336;28;20124;-73
2022/04/17 03:31:41;;;;;;;24.10;21.60;;;32.50;93.20;;;;;;4169524;28;20546;-73
2022/04/17 03:33:48;;;;;;;23.73;20.98;;;32.60;93.20;;;;;;4154011;28;20055;-73
2022/04/17 03:35:55;;;;;;;24.92;22.13;;;32.60;93.10;;;;;;4156983;28;20033;-73
2022/04/17 03:38:00;;;;;;;24.92;22.30;;;32.60;93.00;;;;;;4152708;28;20046;-73
2022/04/17 03:40:08;;;;;;;28.50;23.95;;;32.60;93.10;;;;;;4162947;28;20047;-73
2022/04/17 03:42:16;;;;;;;23.75;21.25;;;32.70;93.10;;;;;;4166167;28;20049;-73
2022/04/17 03:44:21;;;;;;;24.15;21.55;;;32.80;93.10;;;;;;4173364;28;20049;-73
2022/04/17 03:46:27;;;;;;;24.45;21.83;;;32.90;93.00;;;;;;4156901;28;20041;-73
2022/04/17 03:48:34;;;;;;;24.80;22.23;;;32.90;92.80;;;;;;4164563;28;20072;-73
2022/04/17 03:50:40;;;;;;;24.83;22.30;;;32.90;92.70;;;;;;4158306;28;20103;-72
2022/04/17 03:52:48;;;;;;;24.30;21.77;;;32.80;92.70;;;;;;4164902;28;20049;-72
2022/04/17 03:54:55;;;;;;;25.02;22.55;;;32.80;92.70;;;;;;4158384;28;20060;-73
2022/04/17 03:57:03;;;;;;;24.45;21.85;;;32.60;92.60;;;;;;4165933;28;20087;-74
2022/04/17 03:59:10;;;;;;;24.80;22.25;;;32.70;92.90;;;;;;4161794;28;20551;-72
2022/04/17 04:01:18;;;;;;;23.88;21.40;;;32.70;92.90;;;;;;4149767;28;20064;-72
2022/04/17 04:03:25;;;;;;;25.50;22.80;;;32.80;93.00;;;;;;4159406;28;20545;-73
2022/04/17 04:05:38;;;;;;;25.52;22.50;;;32.90;93.00;;;;;;4165389;28;20432;-73
2022/04/17 04:07:45;;;;;;;27.92;22.88;;;32.90;92.60;;;;;;4155082;28;20440;-73
2022/04/17 04:09:50;;;;;;;24.42;21.83;;;33.00;92.40;;;;;;4148480;28;20572;-72
2022/04/17 04:11:57;;;;;;;25.45;22.60;;;33.10;92.20;;;;;;4158202;28;20055;-72
2022/04/17 04:14:05;;;;;;;26.17;21.80;;;33.20;92.20;;;;;;4158471;28;20077;-73
2022/04/17 04:16:10;;;;;;;23.50;20.77;;;33.30;92.40;;;;;;4165945;28;20076;-73
2022/04/17 04:18:16;;;;;;;22.40;19.88;;;33.40;92.30;;;;;;4162149;28;21248;-73
2022/04/17 04:20:23;;;;;;;23.17;20.88;;;33.50;92.30;;;;;;4151106;28;20590;-73
2022/04/17 04:22:27;;;;;;;22.45;20.23;;;33.60;92.30;;;;;;4153774;28;20050;-73
2022/04/17 04:24:32;;;;;;;21.77;19.02;;;33.60;92.00;;;;;;4157772;28;20049;-73
2022/04/17 04:26:39;;;;;;;23.30;20.58;;;33.60;91.80;;;;;;4149599;28;20113;-73
2022/04/17 04:28:44;;;;;;;21.55;19.17;;;33.50;91.30;;;;;;4153659;28;20052;-73
2022/04/17 04:30:51;;;;;;;20.88;18.67;;;33.60;91.50;;;;;;4155533;28;20037;-73
2022/04/17 04:32:59;;;;;;;20.52;18.48;;;33.60;91.60;;;;;;4150435;28;20128;-73
2022/04/17 04:35:04;;;;;;;19.45;17.42;;;33.60;91.40;;;;;;4149469;28;20045;-73
2022/04/17 04:37:11;;;;;;;19.75;17.65;;;33.70;91.40;;;;;;4156116;28;20569;-73
2022/04/17 04:39:18;;;;;;;20.45;18.35;;;33.80;91.30;;;;;;4160970;28;20053;-73
2022/04/17 04:41:23;;;;;;;22.52;19.05;;;33.90;91.10;;;;;;4156477;28;20050;-73
2022/04/17 04:43:29;;;;;;;20.60;18.52;;;33.80;91.10;;;;;;4150960;28;20681;-74
2022/04/17 04:47:51;;;;;;;20.98;18.85;;;33.80;90.70;;;;;;4160587;28;20041;-73
2022/04/17 04:49:58;;;;;;;18.73;16.90;;;33.80;90.70;;;;;;4159533;28;20076;-73
2022/04/17 04:52:06;;;;;;;18.02;16.13;;;33.80;91.00;;;;;;4154366;28;20068;-73
2022/04/17 04:54:11;;;;;;;20.20;16.52;;;33.80;90.60;;;;;;4151709;28;20516;-73
2022/04/17 04:56:17;;;;;;;17.85;15.98;;;33.80;90.70;;;;;;4159262;28;20045;-73
2022/04/17 04:58:23;;;;;;;18.23;16.20;;;33.80;90.30;;;;;;4153550;28;20053;-73
2022/04/17 05:00:28;;;;;;;19.33;17.33;;;33.90;90.30;;;;;;4152099;28;20050;-72
2022/04/17 05:02:38;;;;;;;18.08;16.17;;;33.90;90.20;;;;;;4160657;28;20052;-72
2022/04/17 05:04:45;;;;;;;20.85;15.82;;;34.00;90.00;;;;;;4158423;28;20080;-73
2022/04/17 05:06:49;;;;;;;19.67;16.35;;;34.00;89.50;;;;;;4157792;28;20071;-73
2022/04/17 05:08:56;;;;;;;18.65;16.13;;;34.10;89.70;;;;;;4167520;28;20510;-73
2022/04/17 05:11:03;;;;;;;20.65;16.73;;;34.20;89.80;;;;;;4173741;28;20045;-73
2022/04/17 05:13:09;;;;;;;17.52;15.77;;;34.20;90.20;;;;;;4155505;28;20034;-73
2022/04/17 05:15:16;;;;;;;17.35;15.55;;;34.30;89.50;;;;;;4158867;28;20053;-74
2022/04/17 05:17:22;;;;;;;18.20;16.30;;;34.30;89.50;;;;;;4167148;28;20064;-73
2022/04/17 05:19:28;;;;;;;19.08;17.13;;;34.30;89.20;;;;;;4159243;28;20500;-73
2022/04/17 05:21:33;;;;;;;17.48;15.75;;;34.30;89.00;;;;;;4160103;28;20046;-73
2022/04/17 05:23:40;;;;;;;18.67;16.77;;;34.40;89.60;;;;;;4161602;28;20046;-72
2022/04/17 05:25:47;;;;;;;18.50;16.55;;;34.40;89.90;;;;;;4166283;28;20045;-73
2022/04/17 05:27:53;;;;;;;18.08;15.98;;;34.40;89.60;;;;;;4149197;28;20677;-73
2022/04/17 05:29:58;;;;;;;39.55;18.38;;;34.50;89.20;;;;;;4167203;28;20053;-71
2022/04/17 05:32:04;;;;;;;21.80;16.52;;;34.60;88.60;;;;;;4157016;28;20049;-70
2022/04/17 05:34:11;;;;;;;20.00;16.00;;;34.50;88.10;;;;;;4164693;28;20077;-73
2022/04/17 05:36:15;;;;;;;17.13;15.43;;;34.50;88.20;;;;;;4157544;28;20141;-71
2022/04/17 05:38:20;;;;;;;16.75;15.02;;;34.50;88.40;;;;;;4182842;28;20045;-72
2022/04/17 05:40:25;;;;;;;17.45;15.00;;;34.60;87.70;;;;;;4162886;28;20099;-71
2022/04/17 05:42:31;;;;;;;20.50;16.00;;;34.70;87.40;;;;;;4159372;28;20041;-71
2022/04/17 05:44:37;;;;;;;17.83;15.73;;;34.70;86.60;;;;;;4160916;28;20053;-71
2022/04/17 05:46:44;;;;;;;17.95;15.77;;;34.80;86.50;;;;;;4167170;28;20045;-71
2022/04/17 05:48:51;;;;;;;17.27;15.48;;;34.80;86.20;;;;;;4168606;28;20045;-71
2022/04/17 05:51:00;;;;;;;17.40;15.70;;;34.90;86.70;;;;;;4138742;28;20046;-71
2022/04/17 05:53:10;;;;;;;17.05;15.43;;;34.90;86.70;;;;;;4157828;28;20034;-70
2022/04/17 05:55:28;;;;;;;16.73;14.98;;;35.00;86.30;;;;;;4168465;28;20083;-72
2022/04/17 05:57:38;;;;;;;16.52;14.77;;;35.00;86.30;;;;;;4169410;28;20054;-73
2022/04/17 05:59:47;;;;;;;18.00;16.10;;;35.10;85.80;;;;;;4151603;28;20157;-73
2022/04/17 06:01:58;;;;;;;17.73;15.93;;;35.10;86.00;;;;;;4177816;28;20041;-71
2022/04/17 06:04:21;;;;;;;17.98;14.82;;;35.20;86.50;;;;;;4168642;28;20558;-72
2022/04/17 06:06:30;;;;;;;18.55;16.65;;;35.20;86.60;;;;;;4168132;28;20041;-70
2022/04/17 06:08:38;;;;;;;19.67;17.58;;;35.20;86.60;;;;;;4180394;28;20523;-71
2022/04/17 06:10:46;;;;;;;21.85;16.73;;;35.20;86.80;;;;;;4181990;28;20045;-72
2022/04/17 06:13:05;;;;;;;18.75;16.80;;;35.00;87.00;;;;;;4170971;28;20041;-72
2022/04/17 06:15:28;;;;;;;18.90;16.77;;;35.00;87.20;;;;;;4170184;28;20057;-70
2022/04/17 06:17:38;;;;;;;22.73;17.33;;;35.00;87.60;;;;;;4168223;28;20050;-71
2022/04/17 06:19:57;;;;;;;18.83;17.02;;;35.00;86.60;;;;;;4183788;28;20048;-72
2022/04/17 06:22:04;;;;;;;18.17;16.38;;;34.90;86.70;;;;;;4166306;28;20075;-70
2022/04/17 06:24:09;;;;;;;17.67;15.57;;;34.90;86.60;;;;;;4182742;28;20107;-70
2022/04/17 06:26:16;;;;;;;20.67;16.95;;;35.00;86.60;;;;;;4172036;28;20113;-71
2022/04/17 06:28:23;;;;;;;18.55;16.70;;;35.10;85.00;;;;;;4150746;28;20050;-72
2022/04/17 06:30:28;;;;;;;18.25;16.50;;;34.90;85.90;;;;;;4152003;28;20045;-71
2022/04/17 06:32:34;;;;;;;18.42;16.52;;;35.00;86.10;;;;;;4154706;28;20566;-71
2022/04/17 06:34:42;;;;;;;19.33;17.48;;;35.10;86.50;;;;;;4141798;28;20436;-71
2022/04/17 06:36:51;;;;;;;19.40;17.27;;;35.10;86.00;;;;;;4151360;28;20038;-70
2022/04/17 06:39:08;;;;;;;22.13;18.05;;;35.20;86.30;;;;;;4169118;28;20057;-71
2022/04/17 06:41:17;;;;;;;18.95;16.70;;;35.20;86.30;;;;;;4155758;28;20524;-71
2022/04/17 06:43:26;;;;;;;19.77;17.88;;;35.30;85.80;;;;;;4156829;28;20679;-70
2022/04/17 06:45:39;;;;;;;20.02;17.95;;;35.40;85.10;;;;;;4139357;28;20048;-71
2022/04/17 06:47:50;;;;;;;19.80;17.88;;;35.30;85.00;;;;;;4168713;28;20396;-71
2022/04/17 06:49:59;;;;;;;20.15;18.15;;;35.30;85.00;;;;;;4155319;28;20045;-71
2022/04/17 06:52:08;;;;;;;20.38;18.30;;;35.30;85.10;;;;;;4136449;28;20062;-71
2022/04/17 06:54:16;;;;;;;21.08;18.73;;;35.30;84.70;;;;;;4148767;28;20049;-72
2022/04/17 06:56:22;;;;;;;20.25;18.15;;;35.30;84.20;;;;;;4152904;28;20149;-71
2022/04/17 06:58:28;;;;;;;20.75;18.52;;;35.30;84.00;;;;;;4139984;28;20141;-71
2022/04/17 07:00:39;;;;;;;20.42;18.23;;;35.30;84.20;;;;;;4162001;28;20060;-71
2022/04/17 07:02:49;;;;;;;20.77;18.58;;;35.40;83.80;;;;;;4146177;28;20050;-71
2022/04/17 07:05:00;;;;;;;21.02;18.95;;;35.40;83.90;;;;;;4169444;28;20079;-71
2022/04/17 07:07:05;;;;;;;21.10;18.83;;;35.20;84.40;;;;;;4160510;28;20064;-71
2022/04/17 07:09:14;;;;;;;21.90;19.45;;;35.20;84.00;;;;;;4160317;28;20068;-71
2022/04/17 07:11:31;;;;;;;24.33;19.23;;;35.20;84.20;;;;;;4145238;28;20038;-71
2022/04/17 07:13:42;;;;;;;21.35;19.17;;;35.20;84.40;;;;;;4155782;28;20409;-70
2022/04/17 07:15:50;;;;;;;22.08;18.40;;;35.20;83.20;;;;;;4145760;28;20050;-71
2022/04/17 07:18:14;;;;;;;21.80;19.63;;;35.20;84.20;;;;;;4145286;28;20026;-71
2022/04/17 07:20:22;;;;;;;21.33;19.15;;;35.30;83.80;;;;;;4147445;28;20065;-69
2022/04/17 07:22:30;;;;;;;21.83;19.63;;;35.20;82.90;;;;;;4166416;28;20477;-69
2022/04/17 07:24:39;;;;;;;21.60;19.42;;;35.30;83.60;;;;;;4162539;28;20049;-70
2022/04/17 07:26:47;;;;;;;21.80;19.52;;;35.30;83.90;;;;;;4175190;28;20068;-70
2022/04/17 07:28:52;;;;;;;21.98;19.05;;;35.30;84.00;;;;;;4146039;28;20366;-71
2022/04/17 07:30:59;;;;;;;22.92;20.45;;;35.40;83.30;;;;;;4168249;28;20052;-67
2022/04/17 07:33:18;;;;;;;23.83;21.20;;;35.40;83.80;;;;;;4147751;28;20042;-69
2022/04/17 07:35:26;;;;;;;23.38;20.88;;;35.50;83.80;;;;;;4129461;28;20501;-68
2022/04/17 07:37:35;;;;;;;24.35;20.52;;;35.50;83.60;;;;;;4152112;28;20508;-72
2022/04/17 07:39:40;;;;;;;21.85;19.25;;;35.50;83.50;;;;;;4153759;28;20053;-70
2022/04/17 07:41:47;;;;;;;22.02;19.27;;;35.60;83.10;;;;;;4157279;28;20045;-73
2022/04/17 07:43:55;;;;;;;21.60;19.38;;;35.60;82.50;;;;;;4150530;28;20050;-73
2022/04/17 07:45:59;;;;;;;22.05;19.25;;;35.60;82.80;;;;;;4154104;28;20132;-72
2022/04/17 07:48:05;;;;;;;24.17;19.45;;;35.60;82.30;;;;;;4154034;28;20137;-73
2022/04/17 07:50:13;;;;;;;22.33;19.25;;;35.60;82.30;;;;;;4159192;28;20099;-74
2022/04/17 07:52:19;;;;;;;22.58;19.27;;;35.60;82.00;;;;;;4149521;28;20057;-74
2022/04/17 07:54:24;;;;;;;21.55;19.02;;;35.60;81.60;;;;;;4153723;28;20061;-71
2022/04/17 07:56:31;;;;;;;21.10;19.08;;;35.50;81.50;;;;;;4153617;28;20041;-73
2022/04/17 07:58:38;;;;;;;21.60;19.27;;;35.50;81.70;;;;;;4160076;28;20080;-70
2022/04/17 08:00:46;;;;;;;26.33;19.30;;;35.50;81.60;;;;;;4155124;28;20129;-71
2022/04/17 08:03:06;;;;;;;21.80;19.45;;;35.50;81.20;;;;;;4150665;28;20056;-73
2022/04/17 08:05:13;;;;;;;21.15;19.05;;;35.50;81.60;;;;;;4155165;28;20125;-74
2022/04/17 08:07:20;;;;;;;21.67;19.38;;;35.40;81.30;;;;;;4148700;28;20064;-73
2022/04/17 08:09:34;;;;;;;22.73;19.30;;;35.30;80.40;;;;;;4140741;28;20069;-73
2022/04/17 08:11:41;;;;;;;20.77;18.58;;;35.00;81.50;;;;;;4159161;28;20092;-72
2022/04/17 08:13:47;;;;;;;22.02;18.05;;;35.10;81.60;;;;;;4148040;28;20760;-73
2022/04/17 08:15:54;;;;;;;25.88;19.30;;;35.20;81.60;;;;;;4152446;28;20048;-73
2022/04/17 08:18:00;;;;;;;20.58;18.45;;;35.20;81.50;;;;;;4146716;28;20045;-73
2022/04/17 08:20:07;;;;;;;20.63;18.52;;;35.30;81.40;;;;;;4167542;28;20037;-72
2022/04/17 08:22:14;;;;;;;21.38;18.45;;;35.30;81.40;;;;;;4136673;28;20523;-73
2022/04/17 08:24:21;;;;;;;21.02;18.42;;;35.30;81.80;;;;;;4157939;28;20409;-73
2022/04/17 08:26:27;;;;;;;21.35;19.05;;;35.40;81.90;;;;;;4148854;28;20034;-73
2022/04/17 08:28:35;;;;;;;20.88;18.35;;;35.40;81.80;;;;;;4150072;28;20046;-73
2022/04/17 08:30:41;;;;;;;21.80;19.00;;;35.40;81.50;;;;;;4160116;28;20038;-74
2022/04/17 08:32:46;;;;;;;23.85;19.00;;;35.40;81.70;;;;;;4169701;28;20119;-73
2022/04/17 08:34:54;;;;;;;20.27;18.17;;;35.50;81.70;;;;;;4118660;28;20457;-72
2022/04/17 08:37:00;;;;;;;22.25;18.92;;;35.50;81.70;;;;;;4166079;28;20053;-73
2022/04/17 08:39:05;;;;;;;20.38;18.15;;;35.50;81.90;;;;;;4166211;28;20053;-73
2022/04/17 08:41:13;;;;;;;21.85;18.65;;;35.50;82.00;;;;;;4164797;28;20149;-72
2022/04/17 08:43:18;;;;;;;19.73;17.83;;;35.50;82.10;;;;;;4156015;28;20282;-71
2022/04/17 08:45:25;;;;;;;21.13;18.67;;;35.40;80.30;;;;;;4157714;28;20057;-72
2022/04/17 08:47:32;;;;;;;20.50;17.20;;;35.30;81.40;;;;;;4171894;28;20040;-71
2022/04/17 08:49:39;;;;;;;18.90;16.05;;;35.20;81.30;;;;;;4156174;28;20099;-71
2022/04/17 08:51:48;;;;;;;19.52;17.45;;;35.10;80.70;;;;;;4159283;28;20052;-70
2022/04/17 08:53:56;;;;;;;18.30;16.38;;;35.00;80.30;;;;;;4161413;28;20064;-70
2022/04/17 08:56:03;;;;;;;20.45;17.05;;;35.00;80.80;;;;;;4170711;28;20053;-72
2022/04/17 08:58:10;;;;;;;19.92;17.80;;;35.10;80.80;;;;;;4173016;28;20052;-72
2022/04/17 09:00:17;;;;;;;23.08;18.08;;;35.10;80.20;;;;;;4178832;28;20084;-72
2022/04/17 09:02:26;;;;;;;25.90;17.23;;;35.10;80.00;;;;;;4160478;28;20045;-70
2022/04/17 09:04:32;;;;;;;21.13;17.63;;;35.10;79.80;;;;;;4156348;28;20135;-72
2022/04/17 09:06:38;;;;;;;19.95;17.92;;;35.00;80.00;;;;;;4111666;28;20054;-71
2022/04/17 09:08:57;;;;;;;20.10;17.50;;;35.00;80.20;;;;;;4161257;28;20049;-72
2022/04/17 09:11:02;;;;;;;18.85;16.95;;;35.10;80.80;;;;;;4147312;28;20038;-72
2022/04/17 09:13:08;;;;;;;19.70;17.17;;;35.00;81.20;;;;;;4153634;28;20733;-72
2022/04/17 09:15:31;;;;;;;19.08;17.08;;;35.00;80.10;;;;;;4155207;28;20061;-71
2022/04/17 09:17:39;;;;;;;22.58;17.23;;;35.00;80.30;;;;;;4151105;28;20042;-73
2022/04/17 09:19:45;;;;;;;19.15;17.10;;;35.00;80.10;;;;;;4152085;28;20141;-72
2022/04/17 09:21:56;;;;;;;22.23;17.20;;;35.00;80.10;;;;;;4154392;28;20060;-70
2022/04/17 09:24:21;;;;;;;18.77;16.73;;;34.90;79.60;;;;;;4152925;28;20485;-70
2022/04/17 09:26:30;;;;;;;18.67;16.50;;;34.90;79.60;;;;;;4158434;28;20069;-69
2022/04/17 09:28:37;;;;;;;22.63;16.15;;;34.80;79.50;;;;;;4146751;28;20137;-71
2022/04/17 09:30:46;;;;;;;19.70;16.48;;;34.80;78.80;;;;;;4151369;28;20069;-69
2022/04/17 09:32:53;;;;;;;20.63;15.93;;;34.70;79.20;;;;;;4164334;28;20614;-71
2022/04/17 09:35:00;;;;;;;19.60;16.30;;;34.70;78.90;;;;;;4162299;28;20055;-73
2022/04/17 09:37:06;;;;;;;17.90;16.00;;;34.70;79.10;;;;;;4170114;28;20041;-70
2022/04/17 09:39:15;;;;;;;19.35;15.35;;;34.60;78.80;;;;;;4126720;28;20053;-70
2022/04/17 09:41:20;;;;;;;19.23;17.23;;;34.50;79.20;;;;;;4123079;28;20073;-74
2022/04/17 09:43:25;;;;;;;22.77;19.00;;;34.40;84.50;;;;;;4122131;28;20054;-73
2022/04/17 09:45:32;;;;;;;20.23;18.15;;;34.10;87.60;;;;;;4104691;28;20114;-72
2022/04/17 09:47:39;;;;;;;21.58;18.55;;;34.00;88.10;;;;;;4102441;28;20138;-73
2022/04/17 09:49:56;;;;;;;22.27;18.63;;;34.00;89.00;;;;;;4088882;28;20126;-73
2022/04/17 09:52:07;;;;;;;19.65;17.40;;;34.00;87.60;;;;;;4105012;28;20035;-73
2022/04/17 09:54:15;;;;;;;19.75;17.83;;;33.70;88.80;;;;;;4061348;29;20135;-73
2022/04/17 09:56:20;;;;;;;19.05;16.98;;;33.70;89.10;;;;;;4081195;29;20040;-72
2022/04/17 09:58:26;;;;;;;19.25;17.20;;;33.50;89.50;;;;;;4050325;29;20060;-72
2022/04/17 10:00:41;;;;;;;21.20;17.27;;;33.50;90.00;;;;;;4062206;29;20107;-69
2022/04/17 10:02:47;;;;;;;19.05;17.08;;;33.40;90.00;;;;;;4065132;29;20044;-72
2022/04/17 10:04:55;;;;;;;18.73;16.73;;;33.40;90.20;;;;;;4042533;29;20072;-72
2022/04/17 10:07:04;;;;;;;19.73;17.77;;;33.30;90.10;;;;;;4044802;29;20053;-71
2022/04/17 10:09:11;;;;;;;22.88;17.42;;;33.10;90.20;;;;;;4061000;29;20087;-72
2022/04/17 10:11:18;;;;;;;19.73;17.70;;;33.00;90.50;;;;;;4079384;29;20044;-73
2022/04/17 10:13:25;;;;;;;20.55;18.02;;;33.10;90.50;;;;;;4080607;29;20051;-72
2022/04/17 10:15:31;;;;;;;23.42;17.35;;;33.00;90.70;;;;;;4081653;29;20130;-72
2022/04/17 10:17:44;;;;;;;22.42;18.23;;;33.00;90.90;;;;;;4094186;28;20435;-72
2022/04/17 10:19:51;;;;;;;20.92;18.75;;;32.80;91.10;;;;;;4105037;28;20066;-71
2022/04/17 10:22:00;;;;;;;25.15;18.45;;;32.70;91.30;;;;;;4112418;28;20138;-73
2022/04/17 10:24:14;;;;;;;20.33;17.75;;;32.60;91.40;;;;;;4095370;28;20070;-74
2022/04/17 10:26:21;;;;;;;20.63;17.73;;;32.60;91.40;;;;;;4127827;28;20046;-72
2022/04/17 10:28:26;;;;;;;21.45;18.98;;;32.70;91.30;;;;;;4112476;28;20126;-73
2022/04/17 10:31:01;;;;;;;23.33;18.90;;;32.50;91.50;;;;;;4152871;28;20076;-74
2022/04/17 10:33:29;;;;;;;21.58;19.27;;;32.50;91.70;;;;;;4155621;28;20053;-75
2022/04/17 10:35:52;;;;;;;24.92;19.80;;;32.50;91.80;;;;;;4138470;28;20077;-74
2022/04/17 10:38:22;;;;;;;22.20;19.83;;;32.30;91.90;;;;;;4149714;28;20099;-74
2022/04/17 10:40:26;;;;;;;22.25;18.83;;;32.30;92.10;;;;;;4155087;28;20054;-75
2022/04/17 10:42:53;;;;;;;21.25;19.00;;;32.30;92.20;;;;;;4148936;28;20045;-75
2022/04/17 10:45:03;;;;;;;20.52;18.08;;;32.30;92.40;;;;;;4152810;28;20038;-74
2022/04/17 10:47:21;;;;;;;21.50;19.23;;;32.30;92.50;;;;;;4150658;28;20040;-72
2022/04/17 10:49:32;;;;;;;21.90;19.42;;;32.20;92.70;;;;;;4153985;28;20485;-74
2022/04/17 10:51:41;;;;;;;21.40;19.00;;;32.00;92.70;;;;;;4154506;28;20087;-75
2022/04/17 10:53:59;;;;;;;22.33;18.52;;;32.10;93.00;;;;;;4153158;28;20037;-74
2022/04/17 10:56:07;;;;;;;21.65;19.33;;;32.10;92.80;;;;;;4152054;28;20045;-74
2022/04/17 10:58:15;;;;;;;24.70;19.30;;;32.00;92.80;;;;;;4151946;28;20141;-74
2022/04/17 11:00:36;;;;;;;21.73;18.65;;;31.80;93.10;;;;;;4148260;28;20133;-71
2022/04/17 11:02:55;;;;;;;23.85;20.05;;;31.80;93.20;;;;;;4149285;28;20625;-72
2022/04/17 11:05:04;;;;;;;21.45;18.95;;;31.90;93.10;;;;;;4118021;28;20560;-72
2022/04/17 11:07:12;;;;;;;22.45;19.38;;;31.80;93.30;;;;;;4117832;28;20117;-71